TimeEST,TemperatureF,Dew PointF,Humidity,Sea Level PressureIn,VisibilityMPH,Wind Direction,Wind SpeedMPH,Gust SpeedMPH,PrecipitationIn,Events,Conditions,WindDirDegrees,DateUTC
12:53 AM,21.9,12.0,66,30.38,10.0,NW,9.2,-,N/A,,Overcast,320,2013-01-18 05:53:00
1:53 AM,21.9,12.0,66,30.40,10.0,Calm,Calm,-,N/A,,Overcast,0,2013-01-18 06:53:00
2:53 AM,21.9,12.9,68,30.43,10.0,West,4.6,-,N/A,,Overcast,280,2013-01-18 07:53:00
3:24 AM,23.0,14.0,68,30.41,10.0,WNW,4.6,-,N/A,,Overcast,290,2013-01-18 08:24:00
3:53 AM,23.0,15.1,72,30.44,10.0,Calm,Calm,-,N/A,,Overcast,0,2013-01-18 08:53:00
4:22 AM,21.2,14.0,74,30.39,10.0,NNE,3.5,-,N/A,,Overcast,20,2013-01-18 09:22:00
4:53 AM,21.9,14.0,72,30.44,10.0,Calm,Calm,-,N/A,,Overcast,0,2013-01-18 09:53:00
5:53 AM,21.9,12.9,68,30.45,10.0,Calm,Calm,-,N/A,,Overcast,0,2013-01-18 10:53:00
6:31 AM,19.4,12.2,74,30.40,10.0,NE,3.5,-,N/A,,Overcast,40,2013-01-18 11:31:00
7:53 AM,19.9,12.9,74,30.46,10.0,ESE,4.6,-,N/A,,Mostly Cloudy,120,2013-01-18 12:53:00
8:53 AM,21.0,12.9,71,30.47,10.0,SE,4.6,-,N/A,,Mostly Cloudy,140,2013-01-18 13:53:00
9:53 AM,24.1,17.1,75,30.47,10.0,South,6.9,-,N/A,,Mostly Cloudy,190,2013-01-18 14:53:00
10:53 AM,26.1,16.0,66,30.46,10.0,WSW,13.8,-,N/A,,Overcast,240,2013-01-18 15:53:00
11:53 AM,27.0,16.0,63,30.42,10.0,SW,12.7,-,N/A,,Overcast,230,2013-01-18 16:53:00
12:53 PM,28.9,17.1,61,30.36,10.0,SW,18.4,-,N/A,,Partly Cloudy,230,2013-01-18 17:53:00
1:53 PM,30.0,17.1,59,30.32,10.0,SW,17.3,-,N/A,,Clear,230,2013-01-18 18:53:00
2:53 PM,32.0,19.0,59,30.27,10.0,SW,19.6,28.8,N/A,,Clear,230,2013-01-18 19:53:00
3:53 PM,33.1,19.9,59,30.23,10.0,SW,17.3,27.6,N/A,,Clear,220,2013-01-18 20:53:00
4:53 PM,33.1,19.9,59,30.20,10.0,SW,20.7,29.9,N/A,,Clear,220,2013-01-18 21:53:00
5:53 PM,33.1,19.9,59,30.17,10.0,SW,18.4,29.9,N/A,,Overcast,220,2013-01-18 22:53:00
6:53 PM,33.1,19.0,56,30.14,10.0,SW,17.3,27.6,N/A,,Clear,220,2013-01-18 23:53:00
7:53 PM,33.1,19.9,59,30.11,10.0,SW,20.7,31.1,N/A,,Clear,220,2013-01-19 00:53:00
8:53 PM,33.1,21.0,61,30.09,10.0,SW,17.3,-,N/A,,Clear,230,2013-01-19 01:53:00
9:53 PM,33.1,21.0,61,30.08,10.0,SW,17.3,23.0,N/A,,Clear,230,2013-01-19 02:53:00
10:53 PM,33.1,21.9,64,30.06,10.0,SW,17.3,24.2,N/A,,Clear,230,2013-01-19 03:53:00
11:53 PM,33.1,21.9,64,30.04,10.0,SW,16.1,-,N/A,,Clear,230,2013-01-19 04:53:00